Latest Coastal Weather Observations for Strahan

IDT60701

Issued at 11:12 pm EDT Friday 20 October 2017 (issued every 10 minutes, with the page automatically refreshed every 10 minutes)

About coastal observations | Map of coastal stations | Coastal observations for TAS | Marine services | Other Formats
Station Details ID: 097072 Name: STRAHAN AERODROME Lat: -42.16 Lon: 145.29 Height: 21.0 m
Data from the previous 72 hours. | See also: Recent months at Strahan
Date/Time
EDT
Temp
°C
Wind Pressure Rain since
9am
mm
Weather Cloud Vis
km
Sea
Height
m
Swell
Dir  Spd
kts
Gust
kts
hPa Trend Height
m
Period
s
Dir
20/11:00pm 10.4 W 8 12 1025.8 - 0.2 - Partly cloudy 10 - - - -
20/10:30pm 10.2 W 8 12 1026.1 - 0.2 - Partly cloudy 10 - - - -
20/10:00pm 10.2 W 9 13 1026.2 - 0.2 - Cloudy 10 - - - -
20/09:30pm 9.7 WNW 12 18 1026.4 - 0.2 - Partly cloudy 8 - - - -
20/09:00pm 10.3 W 9 13 1026.4 - 0.2 - Cloudy 10 - - - -
20/08:30pm 10.5 W 8 11 1026.2 - 0.2 - Cloudy 10 - - - -
20/08:00pm 10.4 W 8 11 1026.2 - 0.2 - Cloudy 10 - - - -
20/07:30pm 10.4 WSW 9 12 1026.4 - 0.2 - Cloudy 10 - - - -
20/07:00pm 10.5 WSW 10 13 1026.4 - 0.2 - Partly cloudy 10 - - - -
20/06:30pm 10.8 WSW 7 9 1026.2 - 0.2 - Partly cloudy 10 - - - -
20/06:00pm 11.4 WSW 10 14 1026.4 - 0.2 - Mostly cloudy 10 - - - -
20/05:30pm 12.3 WSW 12 16 1026.4 - 0.2 - Partly cloudy 10 - - - -
20/05:00pm 10.8 WSW 12 16 1026.5 - 0.2 - Partly cloudy 10 - - - -
20/04:30pm 11.4 WSW 12 15 1026.3 - 0.2 - Partly cloudy 10 - - - -
20/04:00pm 11.6 SW 12 17 1026.2 - 0.2 - Partly cloudy 10 - - - -
20/03:30pm 12.2 WSW 13 16 1026.1 - 0.2 - Cloudy 10 - - - -
20/03:00pm 12.1 WSW 15 20 1026.3 - 0.2 - Cloudy 10 - - - -
20/02:30pm 11.8 SW 16 21 1026.2 - 0.2 - Partly cloudy 10 - - - -
20/02:00pm 12.5 WSW 17 22 1026.0 - 0.2 - Partly cloudy 10 - - - -
20/01:30pm 12.8 SW 17 22 1025.8 - 0.2 - Partly cloudy 10 - - - -
20/01:00pm 12.9 SW 18 23 1025.6 - 0.2 - Partly cloudy 10 - - - -
20/12:30pm 12.7 SW 14 19 1025.4 - 0.2 - Partly cloudy 10 - - - -
20/12:00pm 13.5 WSW 17 25 1025.1 - 0.2 - Cloudy 10 - - - -
20/11:30am 12.4 SW 17 24 1025.0 - 0.2 - Partly cloudy 10 - - - -
20/11:00am 12.2 WSW 19 25 1024.6 - 0.2 - Partly cloudy 10 - - - -
20/10:52am 11.4 WSW 19 26 1024.6 - 0.2 - Partly cloudy 10 - - - -
20/10:34am 10.9 WSW 18 24 1024.3 - 0.2 - Partly cloudy 5 - - - -
20/10:30am 11.9 WSW 18 24 1024.2 - 0.0 - Partly cloudy 10 - - - -
20/10:00am 12.5 WSW 17 29 1023.7 - 0.0 - Partly cloudy 10 - - - -
20/09:30am 12.3 WSW 18 24 1023.2 - 0.0 - Partly cloudy 10 - - - -
20/09:00am 12.0 WSW 16 23 1022.7 - 10.2 - Cloudy 10 - - - -
20/08:30am 12.1 SW 15 22 1022.4 - 10.2 - Partly cloudy 10 - - - -
20/08:00am 10.6 SW 13 19 1022.0 - 10.2 - Partly cloudy 10 - - - -
20/07:30am 10.2 WSW 17 25 1021.6 - 10.2 - Partly cloudy 10 - - - -
20/07:00am 10.7 WSW 17 25 1021.0 - 10.2 - Partly cloudy 10 - - - -
20/06:30am 10.4 W 17 25 1020.4 - 10.2 - Partly cloudy 10 - - - -
20/06:12am 10.1 W 16 27 1020.1 - 10.2 - Partly cloudy 10 - - - -
20/06:00am 10.0 W 17 23 1019.8 - 10.2 Rain Cloudy 10 - - - -
20/05:34am 10.7 W 16 26 1019.4 - 9.8 - Partly cloudy 10 - - - -
20/05:30am 10.8 W 15 21 1019.2 - 9.8 - Partly cloudy 10 - - - -
20/05:10am 10.7 W 17 29 1019.0 - 9.8 - Partly cloudy 10 - - - -
20/05:00am 10.4 W 16 24 1019.0 - 9.8 - Partly cloudy 10 - - - -
20/04:42am 10.3 W 17 27 1018.9 - 9.8 - Partly cloudy 10 - - - -
20/04:30am 10.6 W 19 28 1018.7 - 9.8 - Partly cloudy 10 - - - -
20/04:00am 10.5 WNW 15 25 1018.3 - 9.8 - Partly cloudy 10 - - - -
20/03:41am 10.0 WNW 15 25 1018.3 - 9.8 - Partly cloudy 10 - - - -
20/03:30am 10.1 WNW 19 25 1018.2 - 9.8 - Partly cloudy 10 - - - -
20/03:13am 10.7 WNW 19 30 1018.1 - 9.8 - Partly cloudy 10 - - - -
20/03:00am 10.8 WNW 16 25 1018.0 - 9.8 - Partly cloudy 10 - - - -
20/02:51am 10.5 WNW 15 25 1018.1 - 9.8 - - 10 - - - -
20/02:30am 10.5 W 18 27 1018.0 - 9.8 - Partly cloudy 10 - - - -
20/02:21am 11.0 WNW 16 27 1018.0 - 9.8 - Partly cloudy 10 - - - -
20/02:00am 10.9 W 15 21 1018.0 - 9.8 - Partly cloudy 10 - - - -
20/01:30am 10.6 W 17 24 1017.9 - 9.8 - Partly cloudy 10 - - - -
20/01:18am 11.0 WNW 15 26 1017.9 - 9.8 - Partly cloudy 10 - - - -
20/01:00am 10.9 WNW 14 21 1017.8 - 9.8 - Partly cloudy 10 - - - -
20/12:30am 10.9 WNW 15 22 1017.5 - 9.8 - Partly cloudy 10 - - - -
20/12:10am 10.8 WNW 16 26 1017.2 - 9.8 - Partly cloudy 10 - - - -
20/12:00am 10.8 WNW 17 23 1017.1 - 9.8 Recent precip. Cloudy 10 - - - -
 
Date/Time
EDT
Temp
°C
Wind Pressure Rain since
9am
mm
Weather Cloud Vis
km
Sea
Height
m
Swell
Dir  Spd
kts
Gust
kts
hPa Trend Height
m
Period
s
Dir
19/11:31pm 10.3 WNW 17 23 1016.8 - 9.8 - Partly cloudy 10 - - - -
19/11:30pm 10.3 WNW 17 23 1016.8 - 9.8 - Partly cloudy 10 - - - -
19/11:08pm 10.5 NW 19 29 1016.9 - 8.6 - Partly cloudy 5 - - - -
19/11:05pm 12.2 NW 16 27 1016.5 - 8.2 - Partly cloudy 10 - - - -
19/11:00pm 12.2 NW 15 22 1016.4 - 8.2 - Partly cloudy 10 - - - -
19/10:30pm 11.6 NW 14 20 1016.5 - 8.2 - Partly cloudy 10 - - - -
19/10:00pm 11.8 NW 17 23 1016.8 - 8.2 - Partly cloudy 10 - - - -
19/09:30pm 11.9 NW 13 18 1016.8 - 8.2 - Partly cloudy 10 - - - -
19/09:00pm 11.7 NW 14 17 1016.8 - 8.2 - Mostly cloudy 10 - - - -
19/08:30pm 11.5 NW 12 16 1016.4 - 8.2 - Partly cloudy 10 - - - -
19/08:00pm 11.4 WNW 11 16 1016.1 - 8.2 - Partly cloudy 10 - - - -
19/07:30pm 11.8 WNW 13 17 1015.8 - 8.2 - Partly cloudy 10 - - - -
19/07:00pm 12.7 WNW 12 15 1015.4 - 8.2 - Partly cloudy 10 - - - -
19/06:30pm 13.7 WNW 10 14 1015.3 - 8.2 - Partly cloudy 10 - - - -
19/06:00pm 13.3 W 11 16 1015.3 - 8.2 - Cloudy 10 - - - -
19/05:30pm 13.6 W 14 19 1015.1 - 8.2 - Partly cloudy 10 - - - -
19/05:00pm 13.0 W 14 19 1014.6 - 8.2 - Partly cloudy 10 - - - -
19/04:30pm 12.4 W 13 19 1014.1 - 8.2 - Partly cloudy 10 - - - -
19/04:29pm 12.4 W 12 17 1014.0 - 8.2 - Partly cloudy 10 - - - -
19/04:25pm 12.6 W 12 16 1013.9 - 8.0 - Partly cloudy 10 - - - -
19/04:03pm 12.9 WNW 12 18 1013.4 - 8.0 - Partly cloudy 5 - - - -
19/04:00pm 13.1 NW 12 16 1013.3 - 8.0 - Partly cloudy 6 - - - -
19/03:30pm 13.5 NW 9 11 1012.9 - 8.0 - Partly cloudy 9 - - - -
19/03:23pm 13.7 NW 9 11 1012.7 - 8.0 - Partly cloudy 10 - - - -
19/03:00pm 13.7 NW 7 9 1012.6 - 8.0 Recent precip. Cloudy 9 - - - -
19/02:59pm 13.8 NW 7 8 1012.6 - 8.0 - Partly cloudy 9 - - - -
19/02:30pm 13.2 WNW 8 11 1012.7 - 7.6 - Partly cloudy 9 - - - -
19/02:00pm 13.3 W 8 13 1012.2 - 7.6 - Partly cloudy 9 - - - -
19/01:36pm 13.3 W 12 16 1011.8 - 7.6 - Partly cloudy 10 - - - -
19/01:30pm 13.3 WSW 12 16 1011.6 - 7.6 - Partly cloudy 10 - - - -
19/01:00pm 15.2 NW 19 26 1011.0 - 7.6 - Cloudy 5 - - - -
19/12:47pm 15.4 NW 19 29 1010.9 - 7.4 - Partly cloudy 5 - - - -
19/12:30pm 15.9 NW 19 27 1010.7 - 7.2 - Partly cloudy 6 - - - -
19/12:17pm 16.1 NNW 17 27 1010.6 - 7.2 - Partly cloudy 3 - - - -
19/12:00pm 16.2 NNW 13 20 1010.6 - 7.0 Rain Cloudy 4 - - - -
19/11:44am 16.2 NNW 15 21 1010.6 - 6.8 - Partly cloudy 5 - - - -
19/11:37am 16.2 NNW 15 20 1010.7 - 6.6 - Partly cloudy 10 - - - -
19/11:30am 16.2 NNW 15 22 1010.8 - 6.6 - Cloudy 7 - - - -
19/11:00am 16.2 N 12 15 1011.0 - 4.0 - Partly cloudy 4 - - - -
19/10:57am 16.2 N 11 15 1010.9 - 3.8 - Partly cloudy 5 - - - -
19/10:30am 16.2 N 9 16 1010.7 - 3.2 - Partly cloudy 10 - - - -
19/10:00am 15.9 N 9 13 1011.0 - 2.8 - Partly cloudy 7 - - - -
19/09:30am 15.8 N 8 10 1011.2 - 1.0 - Cloudy 8 - - - -
19/09:00am 15.5 NNE 8 12 1011.6 - 12.4 Rain Cloudy 9 - - - -
19/08:30am 15.4 NNE 8 11 1011.8 - 11.6 - Partly cloudy 8 - - - -
19/08:08am 15.1 NNE 6 9 1011.6 - 10.6 - Partly cloudy 7 - - - -
19/08:00am 15.1 NNE 7 10 1011.7 - 10.2 - Partly cloudy 6 - - - -
19/07:30am 14.9 N 13 18 1012.0 - 7.8 - Partly cloudy 4 - - - -
19/07:00am 14.2 NNW 12 17 1012.1 - 4.6 - Partly cloudy 3 - - - -
19/06:39am 14.3 WNW 10 14 1011.9 - 2.2 - Partly cloudy 5 - - - -
19/06:30am 14.5 NW 8 9 1011.6 - 1.6 - Partly cloudy 8 - - - -
19/06:00am 15.6 WNW 8 12 1011.7 - 0.8 Rain Cloudy 8 - - - -
19/05:30am 16.2 W 6 8 1011.0 - 0.4 - Cloudy 10 - - - -
19/05:00am 16.3 NE 4 5 1010.4 - 0.4 - Cloudy 10 - - - -
19/04:30am 16.7 NW 6 7 1010.9 - 0.4 - Cloudy 10 - - - -
19/04:00am 16.9 WNW 7 8 1011.1 - 0.4 - Cloudy 10 - - - -
19/03:30am 17.0 NW 5 6 1011.5 - 0.4 - Cloudy 10 - - - -
19/03:00am 17.8 NW 9 13 1012.0 - 0.4 - Mostly cloudy 10 - - - -
19/02:30am 18.5 N 9 14 1011.9 - 0.4 - Cloudy 10 - - - -
19/02:00am 17.1 N 5 5 1012.5 - 0.4 - Partly cloudy 10 - - - -
19/01:30am 17.1 N 8 12 1013.7 - 0.4 - Partly cloudy 10 - - - -
19/01:00am 19.1 N 11 16 1013.5 - 0.2 - Partly cloudy 10 - - - -
19/12:30am 22.3 N 17 22 1013.6 - 0.0 - Cloudy 10 - - - -
19/12:17am 22.8 NNE 15 25 1012.6 - 0.0 - Cloudy 10 - - - -
19/12:00am 23.0 NNE 16 22 1012.9 - 0.0 - Mostly cloudy 10 - - - -
 
Date/Time
EDT
Temp
°C
Wind Pressure Rain since
9am
mm
Weather Cloud Vis
km
Sea
Height
m
Swell
Dir  Spd
kts
Gust
kts
hPa Trend Height
m
Period
s
Dir
18/11:49pm 23.0 NNE 16 27 1013.0 - 0.0 - Partly cloudy 10 - - - -
18/11:30pm 22.8 N 17 25 1013.2 - 0.0 - Partly cloudy 10 - - - -
18/11:00pm 22.7 NNE 15 22 1013.6 - 0.0 - Partly cloudy 10 - - - -
18/10:30pm 22.9 NNE 13 18 1013.9 - 0.0 - Partly cloudy 10 - - - -
18/10:00pm 23.3 N 13 21 1014.3 - 0.0 - Partly cloudy 10 - - - -
18/09:30pm 23.8 NNE 13 18 1014.5 - 0.0 - Partly cloudy 10 - - - -
18/09:00pm 24.2 NNE 12 17 1014.5 - 0.0 - Mostly cloudy 10 - - - -
18/08:30pm 24.3 N 8 10 1014.5 - 0.0 - Cloudy 10 - - - -
18/08:00pm 24.6 N 9 13 1014.2 - 0.0 - Partly cloudy 10 - - - -
18/07:30pm 25.2 N 9 12 1014.0 - 0.0 - Partly cloudy 10 - - - -
18/07:00pm 25.6 N 10 13 1014.2 - 0.0 - - 10 - - - -
18/06:30pm 26.2 NNW 12 16 1014.2 - 0.0 - - 10 - - - -
18/06:00pm 27.3 NNW 11 16 1014.2 - 0.0 - Partly cloudy 10 - - - -
18/05:30pm 26.6 NNW 14 19 1014.3 - 0.0 - Partly cloudy 10 - - - -
18/05:00pm 25.1 NW 15 18 1014.4 - 0.0 - Partly cloudy 10 - - - -
18/04:30pm 27.9 NW 15 22 1014.7 - 0.0 - Partly cloudy 10 - - - -
18/04:00pm 27.5 NW 15 19 1015.0 - 0.0 - - 10 - - - -
18/03:30pm 29.5 NW 14 21 1015.4 - 0.0 - - 10 - - - -
18/03:00pm 29.5 NW 14 19 1015.9 - 0.0 - Mostly clear 10 - - - -
18/02:30pm 30.4 NNW 17 26 1016.2 - 0.0 - - 10 - - - -
18/02:22pm 31.2 NNW 16 26 1016.4 - 0.0 - - 10 - - - -
18/02:00pm 30.8 NNW 17 26 1016.6 - 0.0 - - 10 - - - -
18/01:30pm 30.7 N 14 20 1017.0 - 0.0 - - 10 - - - -
18/01:00pm 29.9 N 11 16 1017.5 - 0.0 - - 10 - - - -
18/12:30pm 30.3 N 14 19 1017.9 - 0.0 - - 10 - - - -
18/12:00pm 28.8 N 14 18 1018.4 - 0.0 - - 10 - - - -
18/11:30am 26.7 N 12 17 1018.6 - 0.0 - - 10 - - - -
18/11:00am 27.4 N 13 18 1018.9 - 0.0 - - 10 - - - -
18/10:30am 26.1 N 14 20 1019.0 - 0.0 - - 10 - - - -
18/10:00am 26.2 NNE 13 18 1018.8 - 0.0 - - 10 - - - -
18/09:30am 25.2 NNE 14 19 1018.9 - 0.0 - - 10 - - - -
18/09:00am 23.6 NNE 12 16 1019.1 - 0.2 - - 10 - - - -
18/08:30am 21.7 NNE 11 16 1019.2 - 0.2 - - 10 - - - -
18/08:00am 21.1 NNE 12 17 1019.3 - 0.2 - - 10 - - - -
18/07:30am 20.6 NNE 11 17 1019.2 - 0.2 - - 10 - - - -
18/07:00am 20.3 NNE 12 16 1019.0 - 0.2 - - 10 - - - -
18/06:30am 19.9 NNE 13 18 1018.9 - 0.2 - - 10 - - - -
18/06:00am 19.9 NNE 13 18 1018.7 - 0.2 - - 10 - - - -
18/05:30am 19.9 NNE 14 20 1018.7 - 0.2 - - 10 - - - -
18/05:00am 19.5 NNE 11 15 1018.8 - 0.2 - - 10 - - - -
18/04:30am 18.6 N 10 14 1018.9 - 0.2 - - 10 - - - -
18/04:00am 17.7 N 10 12 1019.0 - 0.2 - - 10 - - - -
18/03:30am 18.6 NNE 11 16 1018.9 - 0.2 - - 10 - - - -
18/03:00am 18.9 N 11 17 1018.7 - 0.2 - - 10 - - - -
18/02:30am 19.3 NNE 11 15 1018.7 - 0.2 - - 10 - - - -
18/02:00am 17.5 NNW 7 10 1019.1 - 0.2 - - 10 - - - -
18/01:30am 18.8 NNE 9 13 1019.3 - 0.2 - - 10 - - - -
18/01:00am 19.1 NNE 11 14 1019.6 - 0.2 - - 10 - - - -
18/12:30am 19.6 NNE 12 19 1019.6 - 0.2 - - 10 - - - -
18/12:00am 19.0 NNE 9 14 1020.0 - 0.2 - - 10 - - - -
 
Date/Time
EDT
Temp
°C
Wind Pressure Rain since
9am
mm
Weather Cloud Vis
km
Sea
Height
m
Swell
Dir  Spd
kts
Gust
kts
hPa Trend Height
m
Period
s
Dir
17/11:30pm 19.4 NE 11 16 1019.8 - 0.2 - - 10 - - - -

Other Formats:

Comma delimited format used in spreadsheet applications
http://www.bom.gov.au/fwo/IDT60701/IDT60701.94956.axf

JavaScript Object Notation format (JSON) in row-major order
http://www.bom.gov.au/fwo/IDT60701/IDT60701.94956.json